createdAt,value
2022-12-25T00:02:00.727Z,100993.19
2022-12-25T00:04:27.699Z,100992.94
2022-12-25T00:06:55.870Z,100993.97
2022-12-25T00:09:22.847Z,100992.88
2022-12-25T00:11:49.668Z,101002.81
2022-12-25T00:14:16.814Z,101005.22
2022-12-25T00:16:43.771Z,100998.53
2022-12-25T00:19:11.017Z,101004.41
2022-12-25T00:21:38.231Z,101006.78
2022-12-25T00:24:05.192Z,101010.56
2022-12-25T00:26:32.328Z,101001.47
2022-12-25T00:29:00.115Z,101009.22
2022-12-25T00:31:27.278Z,101006.25
2022-12-25T00:33:54.308Z,100998.84
2022-12-25T00:36:22.340Z,101004.19
2022-12-25T00:38:49.573Z,101025.28
2022-12-25T00:41:17.873Z,101041.44
2022-12-25T00:43:44.839Z,101030.44
2022-12-25T00:46:12.721Z,101040.22
2022-12-25T00:48:40.314Z,101044.47
2022-12-25T00:51:08.597Z,101039.06
2022-12-25T00:53:35.405Z,101047.81
2022-12-25T00:56:03.764Z,101053.88
2022-12-25T00:58:31.711Z,101057.53
2022-12-25T01:00:59.006Z,101065.78
2022-12-25T01:03:26.438Z,101057.66
2022-12-25T01:06:00.536Z,101067.19
2022-12-25T01:08:28.951Z,101062.09
2022-12-25T01:11:03.723Z,101059.41
2022-12-25T01:13:31.359Z,101060.22
2022-12-25T01:15:58.329Z,101049.22
2022-12-25T01:18:25.252Z,101055.69
2022-12-25T01:20:52.274Z,101065.25
2022-12-25T01:23:19.120Z,101065.13
2022-12-25T01:25:45.956Z,101078.84
2022-12-25T01:28:12.827Z,101070.75
2022-12-25T01:30:40.458Z,101074.34
2022-12-25T01:33:07.549Z,101077.50
2022-12-25T01:35:34.429Z,101076.44
2022-12-25T01:38:01.199Z,101079.59
2022-12-25T01:40:28.011Z,101075.63
2022-12-25T01:42:54.837Z,101089.47
2022-12-25T01:45:54.213Z,101092.81
2022-12-25T01:48:23.258Z,101095.53
2022-12-25T01:50:59.021Z,101099.03
2022-12-25T01:53:26.267Z,101093.34
2022-12-25T01:55:55.826Z,101110.84
2022-12-25T01:58:23.066Z,101120.38
2022-12-25T02:00:51.254Z,101126.69
2022-12-25T02:03:19.124Z,101130.56
2022-12-25T02:05:46.328Z,101127.50
2022-12-25T02:08:15.233Z,101126.09
2022-12-25T02:10:44.653Z,101129.09
2022-12-25T02:13:16.135Z,101127.63
2022-12-25T02:16:06.336Z,101147.03
2022-12-25T02:18:36.006Z,101158.47
2022-12-25T02:21:13.952Z,101160.66
2022-12-25T02:23:49.918Z,101160.34
2022-12-25T02:26:35.550Z,101159.50
2022-12-25T02:29:25.432Z,101142.13
2022-12-25T02:32:02.858Z,101139.84
2022-12-25T02:34:41.308Z,101133.31
2022-12-25T02:37:08.189Z,101139.22
2022-12-25T02:39:56.569Z,101132.31
2022-12-25T02:42:51.542Z,101134.53
2022-12-25T02:45:39.530Z,101128.44
2022-12-25T02:48:25.397Z,101130.63
2022-12-25T02:51:12.068Z,101130.22
2022-12-25T02:53:59.269Z,101125.38
2022-12-25T02:56:45.835Z,101126.44
2022-12-25T02:59:33.019Z,101136.53
2022-12-25T03:02:18.830Z,101146.47
2022-12-25T03:05:05.125Z,101157.00
2022-12-25T03:07:32.923Z,101155.03
2022-12-25T03:10:22.105Z,101156.00
2022-12-25T03:12:55.198Z,101154.16
2022-12-25T03:15:40.427Z,101162.72
2022-12-25T03:18:08.887Z,101153.19
2022-12-25T03:20:54.501Z,101156.03
2022-12-25T03:23:41.165Z,101149.09
2022-12-25T03:26:26.828Z,101140.91
2022-12-25T03:28:53.634Z,101131.69
2022-12-25T03:31:25.916Z,101129.34
2022-12-25T03:34:11.365Z,101129.34
2022-12-25T03:36:59.686Z,101125.06
2022-12-25T03:39:41.392Z,101122.25
2022-12-25T03:42:27.050Z,101114.50
2022-12-25T03:45:19.187Z,101113.94
2022-12-25T03:48:08.569Z,101124.34
2022-12-25T03:50:53.825Z,101130.88
2022-12-25T03:53:44.859Z,101138.16
2022-12-25T03:56:31.012Z,101137.06
2022-12-25T03:59:23.578Z,101140.09
2022-12-25T04:02:10.892Z,101142.13
2022-12-25T04:04:57.194Z,101142.03
2022-12-25T04:07:44.290Z,101144.31
2022-12-25T04:10:30.052Z,101139.91
2022-12-25T04:13:15.676Z,101145.09
2022-12-25T04:16:00.956Z,101147.09
2022-12-25T04:18:46.336Z,101149.06
2022-12-25T04:21:31.775Z,101135.34
2022-12-25T04:24:17.287Z,101137.44
2022-12-25T04:27:02.930Z,101126.09
2022-12-25T04:29:48.275Z,101138.94
2022-12-25T04:32:33.652Z,101133.53
2022-12-25T04:35:18.971Z,101137.00
2022-12-25T04:37:46.057Z,101141.03
2022-12-25T04:40:14.157Z,101132.59
2022-12-25T04:42:41.400Z,101136.75
2022-12-25T04:45:08.650Z,101152.38
2022-12-25T04:47:35.479Z,101135.38
2022-12-25T04:50:02.378Z,101140.13
2022-12-25T04:52:29.269Z,101139.31
2022-12-25T04:54:56.057Z,101141.16
2022-12-25T04:57:22.896Z,101150.66
2022-12-25T04:59:49.691Z,101148.34
2022-12-25T05:02:16.636Z,101139.66
2022-12-25T05:04:43.488Z,101131.06
2022-12-25T05:07:10.282Z,101129.00
2022-12-25T05:09:41.660Z,101125.06
2022-12-25T05:12:09.217Z,101106.50
2022-12-25T05:14:36.039Z,101113.28
2022-12-25T05:17:03.172Z,101104.56
2022-12-25T05:19:29.981Z,101096.22
2022-12-25T05:21:57.006Z,101090.75
2022-12-25T05:24:25.751Z,101081.25
2022-12-25T05:26:52.548Z,101079.28
2022-12-25T05:29:19.378Z,101067.09
2022-12-25T05:31:46.160Z,101068.97
2022-12-25T05:34:13.022Z,101070.72
2022-12-25T05:36:39.826Z,101081.41
2022-12-25T05:39:06.608Z,101077.78
2022-12-25T05:41:34.703Z,101074.53
2022-12-25T05:44:02.016Z,101078.88
2022-12-25T05:46:28.923Z,101083.53
2022-12-25T05:48:55.760Z,101077.84
2022-12-25T05:51:22.646Z,101085.69
2022-12-25T05:53:49.445Z,101073.16
2022-12-25T05:56:16.288Z,101068.19
2022-12-25T05:58:43.145Z,101075.84
2022-12-25T06:01:23.217Z,101072.91
2022-12-25T06:03:50.288Z,101073.72
2022-12-25T06:06:17.246Z,101090.66
2022-12-25T06:08:44.225Z,101088.56
2022-12-25T06:11:12.638Z,101079.50
2022-12-25T06:13:39.679Z,101082.44
2022-12-25T06:16:07.560Z,101083.81
2022-12-25T06:18:35.352Z,101082.91
2022-12-25T06:21:05.807Z,101084.41
2022-12-25T06:23:32.632Z,101078.69
2022-12-25T06:26:00.419Z,101089.03
2022-12-25T06:28:27.191Z,101081.28
2022-12-25T06:30:53.946Z,101087.03
2022-12-25T06:33:20.729Z,101093.75
2022-12-25T06:35:47.470Z,101105.44
2022-12-25T06:38:14.285Z,101100.22
2022-12-25T06:40:41.039Z,101095.75
2022-12-25T06:43:07.846Z,101101.16
2022-12-25T06:45:35.268Z,101104.28
2022-12-25T06:48:02.068Z,101108.50
2022-12-25T06:50:28.863Z,101102.59
2022-12-25T06:52:56.365Z,101116.13
2022-12-25T06:55:23.198Z,101111.16
2022-12-25T06:57:49.984Z,101102.47
2022-12-25T07:00:16.837Z,101108.25
2022-12-25T07:02:46.388Z,101104.66
2022-12-25T07:05:13.296Z,101098.19
2022-12-25T07:07:40.164Z,101111.19
2022-12-25T07:10:07.287Z,101110.91
2022-12-25T07:12:34.151Z,101108.84
2022-12-25T07:15:00.933Z,101101.78
2022-12-25T07:17:27.768Z,101097.47
2022-12-25T07:19:56.027Z,101094.22
2022-12-25T07:22:23.293Z,101092.59
2022-12-25T07:24:50.094Z,101098.72
2022-12-25T07:27:17.261Z,101101.31
2022-12-25T07:29:44.073Z,101101.09
2022-12-25T07:32:10.924Z,101105.91
2022-12-25T07:34:37.782Z,101100.00
2022-12-25T07:37:04.878Z,101101.63
2022-12-25T07:39:31.736Z,101104.28
2022-12-25T07:41:58.510Z,101102.44
2022-12-25T07:44:25.442Z,101102.06
2022-12-25T07:46:52.589Z,101098.59
2022-12-25T07:49:19.458Z,101107.69
2022-12-25T07:51:46.268Z,101105.03
2022-12-25T07:54:13.106Z,101093.91
2022-12-25T07:56:39.929Z,101109.78
2022-12-25T07:59:06.779Z,101110.09
2022-12-25T08:01:33.826Z,101114.25
2022-12-25T08:04:01.557Z,101114.03
2022-12-25T08:06:32.639Z,101109.78
2022-12-25T08:09:04.262Z,101106.59
2022-12-25T08:11:31.113Z,101107.72
2022-12-25T08:13:57.874Z,101091.34
2022-12-25T08:16:25.014Z,101107.41
2022-12-25T08:18:52.223Z,101102.25
2022-12-25T08:21:19.015Z,101097.34
2022-12-25T08:23:46.389Z,101091.44
2022-12-25T08:26:14.720Z,101094.19
2022-12-25T08:28:41.842Z,101079.06
2022-12-25T08:31:10.325Z,101072.13
2022-12-25T08:33:37.396Z,101070.59
2022-12-25T08:36:05.251Z,101061.69
2022-12-25T08:38:32.383Z,101068.75
2022-12-25T08:40:59.232Z,101072.69
2022-12-25T08:43:26.077Z,101067.75
2022-12-25T08:45:52.948Z,101067.25
2022-12-25T08:48:19.957Z,101071.53
2022-12-25T08:50:47.655Z,101072.91
2022-12-25T08:53:15.348Z,101077.81
2022-12-25T08:55:42.135Z,101069.91
2022-12-25T08:58:09.401Z,101075.47
2022-12-25T09:00:36.419Z,101086.25
2022-12-25T09:03:03.924Z,101089.31
2022-12-25T09:05:31.632Z,101088.75
2022-12-25T09:07:58.589Z,101083.72
2022-12-25T09:10:25.404Z,101079.44
2022-12-25T09:12:52.182Z,101084.88
2022-12-25T09:15:21.397Z,101081.19
2022-12-25T09:17:48.188Z,101080.94
2022-12-25T09:20:15.342Z,101091.19
2022-12-25T09:22:42.265Z,101094.75
2022-12-25T09:25:09.335Z,101095.84
2022-12-25T09:27:36.121Z,101094.13
2022-12-25T09:30:03.966Z,101090.66
2022-12-25T09:32:30.964Z,101081.38
2022-12-25T09:34:57.859Z,101084.72
2022-12-25T09:37:24.734Z,101083.44
2022-12-25T09:39:51.666Z,101071.47
2022-12-25T09:42:24.071Z,101084.28
2022-12-25T09:44:56.390Z,101077.50
2022-12-25T09:47:25.037Z,101082.72
2022-12-25T09:49:55.170Z,101079.38
2022-12-25T09:52:27.813Z,101071.41
2022-12-25T09:54:57.723Z,101076.75
2022-12-25T09:57:27.828Z,101073.31
2022-12-25T09:59:56.310Z,101085.34
2022-12-25T10:02:23.863Z,101078.72
2022-12-25T10:05:09.963Z,101092.81
2022-12-25T10:07:36.952Z,101093.97
2022-12-25T10:10:19.714Z,101089.97
2022-12-25T10:13:04.758Z,101090.09
2022-12-25T10:15:40.417Z,101086.69
2022-12-25T10:18:22.388Z,101088.63
2022-12-25T10:20:54.094Z,101086.25
2022-12-25T10:23:24.032Z,101075.59
2022-12-25T10:25:52.442Z,101078.25
2022-12-25T10:28:44.112Z,101073.19
2022-12-25T10:31:20.600Z,101062.47
2022-12-25T10:33:51.338Z,101055.28
2022-12-25T10:36:19.578Z,101047.56
2022-12-25T10:38:47.606Z,101037.94
2022-12-25T10:41:19.407Z,101018.38
2022-12-25T10:43:50.350Z,101017.84
2022-12-25T10:46:18.347Z,101022.69
2022-12-25T10:48:48.146Z,101018.94
2022-12-25T10:51:25.570Z,101011.47
2022-12-25T10:53:52.504Z,101000.22
2022-12-25T10:56:19.652Z,101001.56
2022-12-25T10:58:46.532Z,100984.72
2022-12-25T11:01:13.771Z,100994.91
2022-12-25T11:03:42.094Z,101000.28
2022-12-25T11:06:21.755Z,100997.59
2022-12-25T11:08:51.784Z,100985.28
2022-12-25T11:11:19.593Z,100974.34
2022-12-25T11:13:52.116Z,100975.66
2022-12-25T11:16:37.861Z,100967.88
2022-12-25T11:19:22.902Z,100954.78
2022-12-25T11:21:50.984Z,100954.53
2022-12-25T11:24:18.878Z,100939.25
2022-12-25T11:26:50.038Z,100928.00
2022-12-25T11:29:19.799Z,100934.69
2022-12-25T11:31:47.488Z,100938.69
2022-12-25T11:34:23.218Z,100932.81
2022-12-25T11:36:51.353Z,100945.69
2022-12-25T11:39:38.470Z,100948.91
2022-12-25T11:42:11.379Z,100949.44
2022-12-25T11:44:38.106Z,100951.56
2022-12-25T11:47:13.276Z,100945.69
2022-12-25T11:49:48.811Z,100933.63
2022-12-25T11:52:17.788Z,100945.41
2022-12-25T11:54:56.892Z,100935.78
2022-12-25T11:57:25.915Z,100942.47
2022-12-25T11:59:56.070Z,100936.28
2022-12-25T12:02:30.544Z,100927.75
2022-12-25T12:05:04.519Z,100915.66
2022-12-25T12:07:32.601Z,100927.19
2022-12-25T12:10:19.197Z,100947.03
2022-12-25T12:12:54.934Z,100966.59
2022-12-25T12:15:28.482Z,100958.56
2022-12-25T12:17:55.876Z,100963.09
2022-12-25T12:20:33.632Z,100956.13
2022-12-25T12:23:01.748Z,100955.59
2022-12-25T12:25:29.030Z,100954.50
2022-12-25T12:28:02.855Z,100953.75
2022-12-25T12:30:34.651Z,100951.84
2022-12-25T12:33:06.051Z,100954.78
2022-12-25T12:35:37.262Z,100952.63
2022-12-25T12:38:07.624Z,100946.22
2022-12-25T12:40:38.674Z,100933.38
2022-12-25T12:43:06.802Z,100930.97
2022-12-25T12:45:35.733Z,100920.47
2022-12-25T12:48:13.766Z,100908.72
2022-12-25T12:50:42.104Z,100912.44
2022-12-25T12:53:27.001Z,100909.25
2022-12-25T12:55:53.915Z,100906.56
2022-12-25T12:58:31.225Z,100897.97
2022-12-25T13:01:04.092Z,100906.56
2022-12-25T13:03:49.874Z,100900.66
2022-12-25T13:06:46.232Z,100897.47
2022-12-25T13:09:16.117Z,100900.94
2022-12-25T13:11:43.604Z,100889.66
2022-12-25T13:14:20.374Z,100885.13
2022-12-25T13:16:48.512Z,100863.16
2022-12-25T13:19:18.371Z,100844.91
2022-12-25T13:22:02.091Z,100835.81
2022-12-25T13:24:32.862Z,100844.41
2022-12-25T13:27:00.375Z,100842.00
2022-12-25T13:29:31.491Z,100851.91
2022-12-25T13:31:58.918Z,100843.06
2022-12-25T13:34:34.225Z,100842.78
2022-12-25T13:37:13.261Z,100836.38
2022-12-25T13:39:47.105Z,100835.56
2022-12-25T13:42:16.257Z,100829.41
2022-12-25T13:44:51.235Z,100826.72
2022-12-25T13:47:27.303Z,100813.31
2022-12-25T13:49:56.022Z,100816.00
2022-12-25T13:52:27.621Z,100808.78
2022-12-25T13:55:14.375Z,100812.53
2022-12-25T13:57:44.372Z,100804.22
2022-12-25T14:00:19.554Z,100802.63
2022-12-25T14:02:46.721Z,100806.94
2022-12-25T14:05:24.586Z,100807.19
2022-12-25T14:07:55.285Z,100799.69
2022-12-25T14:10:22.943Z,100802.34
2022-12-25T14:12:51.561Z,100813.06
2022-12-25T14:15:20.642Z,100810.13
2022-12-25T14:17:48.222Z,100807.44
2022-12-25T14:20:27.308Z,100802.59
2022-12-25T14:22:55.531Z,100812.00
2022-12-25T14:25:24.386Z,100803.94
2022-12-25T14:27:52.151Z,100794.03
2022-12-25T14:30:19.561Z,100800.47
2022-12-25T14:32:50.802Z,100811.19
2022-12-25T14:35:23.114Z,100803.41
2022-12-25T14:37:53.693Z,100792.69
2022-12-25T14:40:28.622Z,100798.84
2022-12-25T14:42:57.492Z,100787.06
2022-12-25T14:45:28.819Z,100779.03
2022-12-25T14:47:57.179Z,100777.69
2022-12-25T14:50:44.261Z,100769.91
2022-12-25T14:53:18.420Z,100763.75
2022-12-25T14:55:52.827Z,100758.69
2022-12-25T14:58:23.127Z,100759.75
2022-12-25T15:01:00.215Z,100758.13
2022-12-25T15:03:32.157Z,100755.97
2022-12-25T15:06:03.591Z,100757.06
2022-12-25T15:08:31.317Z,100748.22
2022-12-25T15:11:01.135Z,100745.28
2022-12-25T15:13:28.864Z,100748.47
2022-12-25T15:16:02.206Z,100751.94
2022-12-25T15:18:31.832Z,100738.25
2022-12-25T15:20:58.971Z,100722.75
2022-12-25T15:23:28.451Z,100727.84
2022-12-25T15:25:55.575Z,100719.53
2022-12-25T15:28:22.464Z,100721.13
2022-12-25T15:30:50.055Z,100709.34
2022-12-25T15:33:18.213Z,100700.78
2022-12-25T15:35:45.066Z,100697.56
2022-12-25T15:38:12.805Z,100696.25
2022-12-25T15:40:40.213Z,100698.09
2022-12-25T15:43:14.454Z,100683.34
2022-12-25T15:45:49.652Z,100686.56
2022-12-25T15:48:16.498Z,100694.88
2022-12-25T15:50:44.349Z,100668.63
2022-12-25T15:53:11.180Z,100670.25
2022-12-25T15:55:38.731Z,100668.09
2022-12-25T15:58:05.528Z,100663.53
2022-12-25T16:00:32.428Z,100664.88
2022-12-25T16:02:59.666Z,100659.03
2022-12-25T16:05:26.802Z,100664.66
2022-12-25T16:07:53.604Z,100660.13
2022-12-25T16:10:20.483Z,100652.06
2022-12-25T16:12:47.677Z,100658.47
2022-12-25T16:15:15.031Z,100650.41
2022-12-25T16:17:41.938Z,100650.94
2022-12-25T16:20:09.131Z,100645.31
2022-12-25T16:22:39.962Z,100644.53
2022-12-25T16:25:17.961Z,100634.84
2022-12-25T16:27:45.412Z,100633.78
2022-12-25T16:30:14.005Z,100623.91
2022-12-25T16:32:42.152Z,100622.31
2022-12-25T16:35:09.885Z,100623.09
2022-12-25T16:37:37.121Z,100620.41
2022-12-25T16:40:04.837Z,100621.50
2022-12-25T16:42:31.761Z,100615.34
2022-12-25T16:44:58.885Z,100612.88
2022-12-25T16:47:25.829Z,100598.72
2022-12-25T16:49:52.761Z,100596.31
2022-12-25T16:52:19.747Z,100582.63
2022-12-25T16:54:46.631Z,100586.63
2022-12-25T16:57:14.065Z,100575.38
2022-12-25T16:59:41.567Z,100576.97
2022-12-25T17:02:10.083Z,100563.63
2022-12-25T17:04:37.327Z,100558.78
2022-12-25T17:07:04.514Z,100553.72
2022-12-25T17:09:31.716Z,100548.63
2022-12-25T17:11:58.641Z,100542.16
2022-12-25T17:14:25.515Z,100538.94
2022-12-25T17:16:52.492Z,100540.00
2022-12-25T17:19:20.573Z,100544.81
2022-12-25T17:21:47.441Z,100537.88
2022-12-25T17:24:14.649Z,100530.34
2022-12-25T17:26:41.655Z,100519.09
2022-12-25T17:29:08.829Z,100516.44
2022-12-25T17:31:36.115Z,100509.47
2022-12-25T17:34:03.606Z,100504.88
2022-12-25T17:36:30.926Z,100493.34
2022-12-25T17:39:01.370Z,100493.91
2022-12-25T17:41:28.269Z,100500.31
2022-12-25T17:43:55.092Z,100495.19
2022-12-25T17:46:24.254Z,100499.72
2022-12-25T17:48:52.599Z,100492.75
2022-12-25T17:51:21.275Z,100492.75
2022-12-25T17:53:49.611Z,100489.81
2022-12-25T17:56:17.999Z,100488.44
2022-12-25T17:58:45.319Z,100489.53
2022-12-25T18:01:14.312Z,100479.03
2022-12-25T18:03:41.801Z,100472.66
2022-12-25T18:06:10.228Z,100480.16
2022-12-25T18:08:39.486Z,100486.28
2022-12-25T18:11:08.901Z,100481.19
2022-12-25T18:13:36.016Z,100481.44
2022-12-25T18:16:06.614Z,100476.59
2022-12-25T18:18:33.944Z,100470.72
2022-12-25T18:21:01.975Z,100459.47
2022-12-25T18:23:29.049Z,100450.06
2022-12-25T18:25:56.025Z,100446.81
2022-12-25T18:28:22.847Z,100442.00
2022-12-25T18:30:49.722Z,100425.66
2022-12-25T18:33:16.571Z,100422.44
2022-12-25T18:35:43.800Z,100414.72
2022-12-25T18:38:11.450Z,100411.19
2022-12-25T18:40:45.259Z,100411.19
2022-12-25T18:43:12.736Z,100397.84
2022-12-25T18:45:39.768Z,100399.44
2022-12-25T18:48:07.360Z,100390.31
2022-12-25T18:50:34.876Z,100387.06
2022-12-25T18:53:02.117Z,100377.38
2022-12-25T18:55:29.066Z,100367.16
2022-12-25T18:57:56.324Z,100363.63
2022-12-25T19:00:23.284Z,100359.31
2022-12-25T19:02:50.733Z,100357.72
2022-12-25T19:05:17.754Z,100355.09
2022-12-25T19:07:44.830Z,100356.44
2022-12-25T19:10:11.733Z,100355.88
2022-12-25T19:12:38.649Z,100351.59
2022-12-25T19:15:06.021Z,100356.09
2022-12-25T19:17:34.250Z,100345.16
2022-12-25T19:20:01.163Z,100335.47
2022-12-25T19:22:28.005Z,100327.69
2022-12-25T19:24:54.802Z,100321.31
2022-12-25T19:27:21.734Z,100319.66
2022-12-25T19:29:48.678Z,100315.91
2022-12-25T19:32:15.459Z,100311.06
2022-12-25T19:34:42.232Z,100297.66
2022-12-25T19:37:09.180Z,100301.59
2022-12-25T19:39:36.033Z,100293.22
2022-12-25T19:42:02.876Z,100289.13
2022-12-25T19:44:29.681Z,100288.13
2022-12-25T19:46:56.653Z,100280.28
2022-12-25T19:49:23.439Z,100278.13
2022-12-25T19:51:50.302Z,100277.88
2022-12-25T19:54:18.893Z,100268.72
2022-12-25T19:56:46.272Z,100267.41
2022-12-25T19:59:14.561Z,100255.78
2022-12-25T20:01:42.185Z,100256.00
2022-12-25T20:04:09.700Z,100252.56
2022-12-25T20:06:38.477Z,100257.91
2022-12-25T20:09:06.605Z,100256.00
2022-12-25T20:11:34.234Z,100256.31
2022-12-25T20:14:01.367Z,100253.63
2022-12-25T20:16:28.452Z,100246.94
2022-12-25T20:18:56.593Z,100254.63
2022-12-25T20:21:23.501Z,100249.00
2022-12-25T20:23:51.620Z,100241.97
2022-12-25T20:26:19.754Z,100230.44
2022-12-25T20:28:47.225Z,100240.78
2022-12-25T20:31:18.337Z,100237.38
2022-12-25T20:33:45.336Z,100232.53
2022-12-25T20:36:13.180Z,100230.16
2022-12-25T20:38:40.572Z,100225.28
2022-12-25T20:41:29.201Z,100227.47
2022-12-25T20:43:56.958Z,100225.28
2022-12-25T20:46:24.629Z,100223.63
2022-12-25T20:48:52.789Z,100220.41
2022-12-25T20:51:21.810Z,100221.72
2022-12-25T20:53:49.058Z,100220.41
2022-12-25T20:56:16.781Z,100216.88
2022-12-25T20:58:43.698Z,100217.88
2022-12-25T21:01:15.471Z,100219.28
2022-12-25T21:03:42.534Z,100228.41
2022-12-25T21:06:09.579Z,100223.09
2022-12-25T21:08:36.868Z,100226.53
2022-12-25T21:11:04.733Z,100219.78
2022-12-25T21:13:33.084Z,100220.50
2022-12-25T21:15:59.982Z,100222.44
2022-12-25T21:18:27.924Z,100217.28
2022-12-25T21:20:55.781Z,100220.56
2022-12-25T21:23:23.030Z,100215.63
2022-12-25T21:25:49.926Z,100222.59
2022-12-25T21:28:16.907Z,100221.38
2022-12-25T21:30:43.802Z,100220.50
2022-12-25T21:33:32.442Z,100226.88
2022-12-25T21:36:09.236Z,100220.22
2022-12-25T21:38:36.441Z,100217.22
2022-12-25T21:41:07.703Z,100211.00
2022-12-25T21:43:35.556Z,100205.72
2022-12-25T21:46:06.899Z,100207.31
2022-12-25T21:48:34.835Z,100203.25
2022-12-25T21:51:24.289Z,100205.19
2022-12-25T21:53:51.504Z,100201.03
2022-12-25T21:56:18.747Z,100206.50
2022-12-25T21:58:45.686Z,100210.78
2022-12-25T22:01:16.968Z,100209.69
2022-12-25T22:03:44.480Z,100212.94
2022-12-25T22:06:30.380Z,100207.53
2022-12-25T22:08:57.439Z,100193.31
2022-12-25T22:11:45.114Z,100194.13
2022-12-25T22:14:53.019Z,100205.94
2022-12-25T22:17:41.354Z,100194.75
2022-12-25T22:20:09.449Z,100208.66
2022-12-25T22:22:36.451Z,100204.47
2022-12-25T22:25:04.476Z,100212.44
2022-12-25T22:27:34.942Z,100213.25
2022-12-25T22:30:02.179Z,100209.69
2022-12-25T22:32:29.045Z,100213.53
2022-12-25T22:34:56.156Z,100210.56
2022-12-25T22:37:23.571Z,100217.97
2022-12-25T22:39:50.394Z,100209.25
2022-12-25T22:42:17.684Z,100204.00
2022-12-25T22:44:45.543Z,100200.78
2022-12-25T22:47:12.464Z,100201.31
2022-12-25T22:49:39.625Z,100196.22
2022-12-25T22:52:08.096Z,100209.69
2022-12-25T22:54:36.126Z,100211.53
2022-12-25T22:57:03.038Z,100216.72
2022-12-25T22:59:29.881Z,100205.19
2022-12-25T23:01:56.775Z,100215.28
2022-12-25T23:04:24.249Z,100213.63
2022-12-25T23:06:51.459Z,100209.63
2022-12-25T23:09:24.344Z,100212.38
2022-12-25T23:11:51.807Z,100217.72
2022-12-25T23:14:37.289Z,100217.53
2022-12-25T23:17:04.371Z,100210.44
2022-12-25T23:19:50.110Z,100206.66
2022-12-25T23:22:35.368Z,100224.94
2022-12-25T23:25:20.862Z,100218.53
2022-12-25T23:27:47.639Z,100215.84
2022-12-25T23:30:15.563Z,100214.78
2022-12-25T23:32:43.288Z,100211.00
2022-12-25T23:35:10.840Z,100212.38
2022-12-25T23:37:37.894Z,100215.56
2022-12-25T23:40:05.127Z,100221.50
2022-12-25T23:42:32.260Z,100212.16
2022-12-25T23:44:59.033Z,100213.16
2022-12-25T23:47:25.834Z,100215.28
2022-12-25T23:49:52.610Z,100220.41
2022-12-25T23:52:19.475Z,100227.19
2022-12-25T23:54:46.404Z,100210.00
2022-12-25T23:57:13.164Z,100215.94
2022-12-25T23:59:40.003Z,100221.09
